createdAt,value
2023-04-16T00:00:15.540Z,101443.69
2023-04-16T00:03:05.810Z,101436.63
2023-04-16T00:05:35.581Z,101446.25
2023-04-16T00:08:06.971Z,101434.81
2023-04-16T00:10:36.642Z,101433.03
2023-04-16T00:13:06.762Z,101434.78
2023-04-16T00:15:36.461Z,101447.06
2023-04-16T00:18:06.454Z,101443.59
2023-04-16T00:20:36.152Z,101437.38
2023-04-16T00:23:07.668Z,101440.03
2023-04-16T00:25:37.381Z,101439.16
2023-04-16T00:28:08.029Z,101438.25
2023-04-16T00:30:38.314Z,101443.53
2023-04-16T00:33:08.470Z,101446.09
2023-04-16T00:35:38.106Z,101441.72
2023-04-16T00:38:09.873Z,101444.34
2023-04-16T00:40:39.941Z,101450.44
2023-04-16T00:43:10.069Z,101450.44
2023-04-16T00:45:40.095Z,101444.19
2023-04-16T00:48:10.196Z,101450.38
2023-04-16T00:50:39.871Z,101444.22
2023-04-16T00:53:11.371Z,101446.00
2023-04-16T00:55:41.243Z,101446.84
2023-04-16T00:58:11.197Z,101442.38
2023-04-16T01:00:40.705Z,101449.44
2023-04-16T01:03:11.190Z,101453.84
2023-04-16T01:05:40.901Z,101458.25
2023-04-16T01:08:19.100Z,101451.13
2023-04-16T01:10:48.833Z,101454.66
2023-04-16T01:13:18.833Z,101454.66
2023-04-16T01:15:48.280Z,101459.03
2023-04-16T01:18:18.252Z,101454.63
2023-04-16T01:20:49.385Z,101456.41
2023-04-16T01:23:20.001Z,101463.41
2023-04-16T01:25:49.628Z,101453.69
2023-04-16T01:28:19.655Z,101455.44
2023-04-16T01:30:49.240Z,101459.84
2023-04-16T01:33:31.091Z,101453.66
2023-04-16T01:36:02.062Z,101451.00
2023-04-16T01:38:32.073Z,101454.47
2023-04-16T01:41:02.240Z,101456.22
2023-04-16T01:43:32.268Z,101453.59
2023-04-16T01:46:13.335Z,101455.34
2023-04-16T01:48:43.925Z,101449.19
2023-04-16T01:51:14.866Z,101450.88
2023-04-16T01:53:44.903Z,101454.41
2023-04-16T01:56:14.517Z,101455.28
2023-04-16T01:58:46.304Z,101458.78
2023-04-16T02:01:17.719Z,101454.38
2023-04-16T02:03:48.998Z,101457.91
2023-04-16T02:06:20.488Z,101455.28
2023-04-16T02:08:50.712Z,101459.72
2023-04-16T02:11:20.364Z,101463.22
2023-04-16T02:13:51.275Z,101464.97
2023-04-16T02:16:21.780Z,101462.31
2023-04-16T02:19:14.470Z,101457.91
2023-04-16T02:21:46.909Z,101453.44
2023-04-16T02:24:16.881Z,101456.06
2023-04-16T02:26:46.568Z,101462.22
2023-04-16T02:29:19.872Z,101464.78
2023-04-16T02:31:55.729Z,101457.72
2023-04-16T02:34:26.793Z,101460.31
2023-04-16T02:36:58.688Z,101466.47
2023-04-16T02:39:28.810Z,101464.63
2023-04-16T02:41:59.618Z,101466.44
2023-04-16T02:44:30.040Z,101469.03
2023-04-16T02:46:59.538Z,101468.19
2023-04-16T02:49:29.548Z,101471.66
2023-04-16T02:52:00.601Z,101462.84
2023-04-16T02:54:30.916Z,101470.75
2023-04-16T02:57:00.495Z,101469.81
2023-04-16T02:59:30.389Z,101472.50
2023-04-16T03:02:00.088Z,101481.31
2023-04-16T03:04:30.157Z,101479.47
2023-04-16T03:07:01.285Z,101481.22
2023-04-16T03:09:31.990Z,101478.56
2023-04-16T03:12:02.081Z,101482.09
2023-04-16T03:14:32.096Z,101484.75
2023-04-16T03:17:01.824Z,101477.66
2023-04-16T03:19:31.690Z,101478.50
2023-04-16T03:22:03.012Z,101480.28
2023-04-16T03:24:33.320Z,101481.94
2023-04-16T03:27:03.325Z,101486.34
2023-04-16T03:29:33.312Z,101479.41
2023-04-16T03:32:02.969Z,101478.53
2023-04-16T03:34:32.912Z,101487.31
2023-04-16T03:37:05.875Z,101482.88
2023-04-16T03:39:35.853Z,101483.66
2023-04-16T03:42:05.533Z,101490.63
2023-04-16T03:44:37.152Z,101498.63
2023-04-16T03:47:06.693Z,101494.16
2023-04-16T03:49:36.532Z,101496.84
2023-04-16T03:52:07.617Z,101493.28
2023-04-16T03:54:37.640Z,101497.75
2023-04-16T03:57:21.787Z,101496.88
2023-04-16T03:59:52.219Z,101502.03
2023-04-16T04:02:22.096Z,101502.06
2023-04-16T04:04:52.588Z,101504.66
2023-04-16T04:07:23.754Z,101509.94
2023-04-16T04:09:55.348Z,101516.06
2023-04-16T04:12:25.133Z,101508.97
2023-04-16T04:14:55.182Z,101509.00
2023-04-16T04:17:25.046Z,101513.50
2023-04-16T04:22:31.535Z,101518.63
2023-04-16T04:25:01.748Z,101520.31
2023-04-16T04:27:33.996Z,101528.22
2023-04-16T04:30:04.601Z,101526.53
2023-04-16T04:32:34.712Z,101523.81
2023-04-16T04:35:05.310Z,101532.59
2023-04-16T04:37:36.523Z,101527.31
2023-04-16T04:40:15.409Z,101530.81
2023-04-16T04:42:44.974Z,101533.50
2023-04-16T04:45:14.945Z,101529.06
2023-04-16T04:47:44.831Z,101542.25
2023-04-16T04:50:15.007Z,101533.50
2023-04-16T04:52:46.047Z,101541.50
2023-04-16T04:55:16.372Z,101547.56
2023-04-16T04:57:45.935Z,101542.25
2023-04-16T05:00:15.929Z,101542.28
2023-04-16T05:02:52.723Z,101536.09
2023-04-16T05:05:22.887Z,101538.75
2023-04-16T05:07:53.889Z,101536.13
2023-04-16T05:10:23.740Z,101539.66
2023-04-16T05:12:53.258Z,101539.72
2023-04-16T05:15:23.394Z,101545.88
2023-04-16T05:17:53.100Z,101546.75
2023-04-16T05:20:24.441Z,101545.16
2023-04-16T05:22:55.642Z,101552.16
2023-04-16T05:25:25.676Z,101550.28
2023-04-16T05:27:55.290Z,101557.34
2023-04-16T05:30:25.867Z,101559.19
2023-04-16T05:32:55.466Z,101565.34
2023-04-16T05:35:25.444Z,101564.44
2023-04-16T05:37:56.509Z,101561.88
2023-04-16T05:40:29.776Z,101563.69
2023-04-16T05:42:59.446Z,101562.81
2023-04-16T05:45:29.564Z,101571.66
2023-04-16T05:47:59.664Z,101569.97
2023-04-16T05:50:29.822Z,101569.09
2023-04-16T05:53:00.964Z,101579.72
2023-04-16T05:55:31.078Z,101581.44
2023-04-16T05:58:00.765Z,101576.22
2023-04-16T06:00:30.994Z,101581.53
2023-04-16T06:03:00.926Z,101579.84
2023-04-16T06:05:33.777Z,101586.03
2023-04-16T06:08:05.665Z,101583.34
2023-04-16T06:10:36.088Z,101587.66
2023-04-16T06:13:05.645Z,101588.66
2023-04-16T06:15:35.615Z,101585.25
2023-04-16T06:18:05.511Z,101582.41
2023-04-16T06:20:35.955Z,101592.16
2023-04-16T06:23:07.072Z,101595.63
2023-04-16T06:25:37.189Z,101588.66
2023-04-16T06:28:07.115Z,101594.81
2023-04-16T06:30:37.223Z,101596.63
2023-04-16T06:33:06.753Z,101598.41
2023-04-16T06:35:36.656Z,101595.81
2023-04-16T06:38:07.635Z,101600.28
2023-04-16T06:40:37.916Z,101602.97
2023-04-16T06:43:07.527Z,101615.16
2023-04-16T06:45:37.656Z,101607.25
2023-04-16T06:48:07.608Z,101605.56
2023-04-16T06:50:37.907Z,101611.75
2023-04-16T06:53:09.021Z,101611.75
2023-04-16T06:55:39.223Z,101606.53
2023-04-16T06:58:08.985Z,101614.59
2023-04-16T07:00:38.987Z,101610.19
2023-04-16T07:03:09.168Z,101616.34
2023-04-16T07:05:39.370Z,101619.88
2023-04-16T07:08:10.873Z,101620.84
2023-04-16T07:10:41.130Z,101620.88
2023-04-16T07:13:10.992Z,101631.41
2023-04-16T07:15:41.316Z,101625.16
2023-04-16T07:18:11.961Z,101616.34
2023-04-16T07:20:41.888Z,101625.06
2023-04-16T07:23:13.025Z,101626.03
2023-04-16T07:25:43.246Z,101619.97
2023-04-16T07:28:13.498Z,101627.94
2023-04-16T07:30:43.488Z,101627.97
2023-04-16T07:33:13.133Z,101629.84
2023-04-16T07:35:43.338Z,101631.44
2023-04-16T07:38:15.049Z,101633.28
2023-04-16T07:40:45.270Z,101632.28
2023-04-16T07:43:15.702Z,101635.88
2023-04-16T07:45:45.820Z,101635.88
2023-04-16T07:48:15.790Z,101640.28
2023-04-16T07:50:45.909Z,101643.66
2023-04-16T07:53:17.235Z,101648.03
2023-04-16T07:55:47.351Z,101649.03
2023-04-16T07:58:18.171Z,101642.78
2023-04-16T08:00:49.790Z,101653.22
2023-04-16T08:03:20.994Z,101650.66
2023-04-16T08:05:51.118Z,101658.63
2023-04-16T08:08:22.329Z,101655.03
2023-04-16T08:10:56.022Z,101656.72
2023-04-16T08:13:26.692Z,101656.72
2023-04-16T08:15:56.933Z,101659.25
2023-04-16T08:18:27.360Z,101662.00
2023-04-16T08:20:59.184Z,101664.78
2023-04-16T08:23:30.592Z,101664.84
2023-04-16T08:26:00.603Z,101668.44
2023-04-16T08:28:30.268Z,101665.34
2023-04-16T08:31:00.388Z,101668.00
2023-04-16T08:33:30.173Z,101667.09
2023-04-16T08:36:00.270Z,101667.09
2023-04-16T08:38:31.397Z,101664.72
2023-04-16T08:41:04.643Z,101663.31
2023-04-16T08:43:35.178Z,101664.69
2023-04-16T08:46:06.835Z,101664.84
2023-04-16T08:48:36.820Z,101654.69
2023-04-16T08:51:10.968Z,101661.94
2023-04-16T08:53:50.110Z,101669.91
2023-04-16T08:56:22.227Z,101669.91
2023-04-16T08:58:52.658Z,101668.09
2023-04-16T09:01:23.144Z,101672.31
2023-04-16T09:03:53.537Z,101681.72
2023-04-16T09:06:23.941Z,101684.16
2023-04-16T09:08:55.708Z,101685.56
2023-04-16T09:11:26.216Z,101686.44
2023-04-16T09:13:56.176Z,101683.16
2023-04-16T09:16:27.026Z,101693.78
2023-04-16T09:18:57.227Z,101685.88
2023-04-16T09:21:28.237Z,101693.59
2023-04-16T09:23:59.960Z,101696.38
2023-04-16T09:26:30.017Z,101694.59
2023-04-16T09:28:59.630Z,101697.28
2023-04-16T09:31:29.610Z,101706.00
2023-04-16T09:34:03.228Z,101707.44
2023-04-16T09:36:34.023Z,101710.97
2023-04-16T09:39:05.312Z,101721.31
2023-04-16T09:41:39.795Z,101719.44
2023-04-16T09:44:09.491Z,101718.19
2023-04-16T09:46:43.740Z,101719.81
2023-04-16T09:49:15.763Z,101715.44
2023-04-16T09:51:48.300Z,101713.06
2023-04-16T09:54:21.379Z,101716.13
2023-04-16T09:56:51.390Z,101724.00
2023-04-16T09:59:21.316Z,101721.00
2023-04-16T10:01:57.249Z,101719.44
2023-04-16T10:04:47.698Z,101728.06
2023-04-16T10:07:17.983Z,101739.41
2023-04-16T10:09:49.887Z,101734.06
2023-04-16T10:12:20.124Z,101739.50
2023-04-16T10:14:50.425Z,101736.94
2023-04-16T10:17:21.528Z,101746.75
2023-04-16T10:19:52.702Z,101738.72
2023-04-16T10:22:22.673Z,101741.53
2023-04-16T10:24:54.142Z,101737.19
2023-04-16T10:27:24.274Z,101739.94
2023-04-16T10:29:54.146Z,101741.66
2023-04-16T10:32:28.852Z,101735.75
2023-04-16T10:35:01.323Z,101742.16
2023-04-16T10:37:32.655Z,101741.16
2023-04-16T10:40:23.192Z,101745.25
2023-04-16T10:42:58.973Z,101747.09
2023-04-16T10:45:33.696Z,101740.09
2023-04-16T10:48:06.339Z,101752.22
2023-04-16T10:50:36.797Z,101755.78
2023-04-16T10:53:19.786Z,101757.69
2023-04-16T10:56:00.573Z,101762.16
2023-04-16T10:58:30.630Z,101753.41
2023-04-16T11:01:02.078Z,101758.66
2023-04-16T11:03:32.504Z,101768.88
2023-04-16T11:06:12.765Z,101767.34
2023-04-16T11:08:54.120Z,101776.88
2023-04-16T11:11:26.300Z,101764.00
2023-04-16T11:13:57.168Z,101777.38
2023-04-16T11:16:30.259Z,101778.91
2023-04-16T11:19:00.268Z,101782.03
2023-04-16T11:21:30.132Z,101793.00
2023-04-16T11:24:00.616Z,101780.69
2023-04-16T11:26:32.020Z,101781.00
2023-04-16T11:29:05.944Z,101793.50
2023-04-16T11:31:36.049Z,101786.38
2023-04-16T11:34:09.189Z,101790.53
2023-04-16T11:36:50.037Z,101795.13
2023-04-16T11:39:25.509Z,101801.31
2023-04-16T11:41:56.936Z,101801.81
2023-04-16T11:44:28.217Z,101806.22
2023-04-16T11:46:57.958Z,101799.22
2023-04-16T11:49:30.990Z,101800.31
2023-04-16T11:52:01.860Z,101804.03
2023-04-16T11:54:35.310Z,101799.66
2023-04-16T11:57:07.492Z,101800.69
2023-04-16T11:59:37.504Z,101802.19
2023-04-16T12:02:40.408Z,101806.69
2023-04-16T12:05:25.691Z,101806.63
2023-04-16T12:07:55.540Z,101811.97
2023-04-16T12:10:25.770Z,101806.50
2023-04-16T12:12:57.490Z,101814.63
2023-04-16T12:15:45.060Z,101805.97
2023-04-16T12:18:15.225Z,101811.22
2023-04-16T12:20:46.051Z,101813.69
2023-04-16T12:23:24.349Z,101813.69
2023-04-16T12:25:54.789Z,101817.56
2023-04-16T12:28:32.983Z,101813.16
2023-04-16T12:31:03.587Z,101815.63
2023-04-16T12:33:33.776Z,101814.81
2023-04-16T12:36:18.010Z,101765.09
2023-04-16T12:38:47.732Z,101812.09
2023-04-16T12:41:17.961Z,101821.22
2023-04-16T12:43:49.350Z,101817.03
2023-04-16T12:46:20.654Z,101823.09
2023-04-16T12:48:50.669Z,101825.47
2023-04-16T12:51:20.640Z,101821.63
2023-04-16T12:53:50.207Z,101824.59
2023-04-16T12:56:20.102Z,101819.03
2023-04-16T12:58:52.336Z,101829.75
2023-04-16T13:01:22.406Z,101827.13
2023-04-16T13:03:52.309Z,101827.25
2023-04-16T13:06:22.585Z,101827.06
2023-04-16T13:08:52.061Z,101821.81
2023-04-16T13:11:22.026Z,101830.59
2023-04-16T13:13:53.202Z,101829.69
2023-04-16T13:16:23.369Z,101836.63
2023-04-16T13:18:53.151Z,101832.47
2023-04-16T13:21:24.044Z,101839.28
2023-04-16T13:23:54.371Z,101846.34
2023-04-16T13:26:24.353Z,101841.94
2023-04-16T13:28:55.376Z,101841.81
2023-04-16T13:31:26.303Z,101840.72
2023-04-16T13:33:56.014Z,101836.41
2023-04-16T13:36:27.649Z,101835.69
2023-04-16T13:38:57.432Z,101842.50
2023-04-16T13:41:27.704Z,101845.41
2023-04-16T13:43:58.670Z,101849.00
2023-04-16T13:46:29.346Z,101847.13
2023-04-16T13:48:59.075Z,101844.47
2023-04-16T13:51:29.018Z,101846.22
2023-04-16T13:53:58.645Z,101848.81
2023-04-16T13:56:28.618Z,101849.72
2023-04-16T13:58:59.773Z,101846.34
2023-04-16T14:01:29.862Z,101849.88
2023-04-16T14:04:02.182Z,101846.44
2023-04-16T14:06:32.435Z,101849.94
2023-04-16T14:09:02.128Z,101847.38
2023-04-16T14:11:32.746Z,101836.78
2023-04-16T14:14:03.796Z,101845.72
2023-04-16T14:16:34.090Z,101849.06
2023-04-16T14:19:03.711Z,101845.59
2023-04-16T14:21:33.889Z,101851.53
2023-04-16T14:24:03.803Z,101850.56
2023-04-16T14:26:33.652Z,101851.41
2023-04-16T14:29:04.719Z,101845.00
2023-04-16T14:31:34.727Z,101853.94
2023-04-16T14:34:04.422Z,101857.31
2023-04-16T14:36:34.369Z,101849.47
2023-04-16T14:39:03.902Z,101856.38
2023-04-16T14:41:33.840Z,101857.38
2023-04-16T14:44:06.419Z,101856.34
2023-04-16T14:46:36.340Z,101859.88
2023-04-16T14:49:06.327Z,101863.44
2023-04-16T14:51:37.359Z,101860.69
2023-04-16T14:54:07.048Z,101860.59
2023-04-16T14:56:37.012Z,101863.22
2023-04-16T14:59:08.442Z,101858.66
2023-04-16T15:01:40.026Z,101862.34
2023-04-16T15:04:09.932Z,101865.75
2023-04-16T15:06:40.147Z,101875.59
2023-04-16T15:09:10.308Z,101876.50
2023-04-16T15:11:40.531Z,101873.72
2023-04-16T15:14:11.869Z,101877.88
2023-04-16T15:16:42.328Z,101873.66
2023-04-16T15:19:14.492Z,101879.03
2023-04-16T15:21:45.980Z,101874.50
2023-04-16T15:24:16.556Z,101875.41
2023-04-16T15:26:46.925Z,101884.31
2023-04-16T15:29:18.213Z,101878.94
2023-04-16T15:31:49.373Z,101889.44
2023-04-16T15:34:19.096Z,101888.44
2023-04-16T15:36:49.291Z,101890.31
2023-04-16T15:39:19.030Z,101894.72
2023-04-16T15:42:00.762Z,101896.28
2023-04-16T15:44:33.618Z,101899.03
2023-04-16T15:47:03.651Z,101898.91
2023-04-16T15:49:33.458Z,101896.28
2023-04-16T15:52:03.519Z,101908.59
2023-04-16T15:54:33.261Z,101896.19
2023-04-16T15:57:03.272Z,101902.34
2023-04-16T15:59:34.361Z,101906.94
2023-04-16T16:02:04.443Z,101905.09
2023-04-16T16:04:34.211Z,101900.41
2023-04-16T16:07:09.119Z,101907.50
2023-04-16T16:09:41.301Z,101910.91
2023-04-16T16:12:11.272Z,101913.41
2023-04-16T16:14:44.006Z,101915.19
2023-04-16T16:17:14.026Z,101913.50
2023-04-16T16:19:45.834Z,101910.84
2023-04-16T16:22:20.594Z,101918.69
2023-04-16T16:24:51.266Z,101916.81
2023-04-16T16:27:21.622Z,101916.88
2023-04-16T16:29:53.155Z,101921.06
2023-04-16T16:32:23.228Z,101922.75
2023-04-16T16:34:52.943Z,101922.66
2023-04-16T16:37:22.931Z,101924.38
2023-04-16T16:39:52.926Z,101920.72
2023-04-16T16:42:25.179Z,101930.31
2023-04-16T16:45:06.788Z,101928.59
2023-04-16T16:47:42.851Z,101926.66
2023-04-16T16:50:18.895Z,101930.09
2023-04-16T16:52:55.109Z,101934.47
2023-04-16T16:55:29.981Z,101929.94
2023-04-16T16:58:06.027Z,101931.69
2023-04-16T17:00:38.981Z,101930.78
2023-04-16T17:03:10.643Z,101935.25
2023-04-16T17:05:40.822Z,101933.34
2023-04-16T17:08:10.940Z,101938.50
2023-04-16T17:10:40.693Z,101948.19
2023-04-16T17:13:11.007Z,101939.19
2023-04-16T17:15:42.302Z,101940.97
2023-04-16T17:18:12.468Z,101954.09
2023-04-16T17:20:41.973Z,101951.44
2023-04-16T17:23:12.526Z,101946.88
2023-04-16T17:25:47.208Z,101951.91
2023-04-16T17:28:17.502Z,101952.81
2023-04-16T17:30:52.455Z,101958.00
2023-04-16T17:33:23.497Z,101963.19
2023-04-16T17:35:53.775Z,101964.06
2023-04-16T17:38:25.143Z,101965.66
2023-04-16T17:40:57.743Z,101964.66
2023-04-16T17:43:30.453Z,101967.09
2023-04-16T17:46:05.559Z,101968.06
2023-04-16T17:48:39.328Z,101975.03
2023-04-16T17:51:13.451Z,101973.00
2023-04-16T17:53:50.521Z,101970.19
2023-04-16T17:56:20.111Z,101972.78
2023-04-16T17:58:52.711Z,101970.16
2023-04-16T18:01:29.547Z,101975.31
2023-04-16T18:04:01.586Z,101979.72
2023-04-16T18:06:34.671Z,101984.03
2023-04-16T18:09:11.691Z,101990.97
2023-04-16T18:11:43.877Z,101986.41
2023-04-16T18:14:20.244Z,101994.91
2023-04-16T18:16:53.526Z,101992.25
2023-04-16T18:19:28.538Z,101986.13
2023-04-16T18:21:59.563Z,101988.56
2023-04-16T18:24:32.237Z,101999.19
2023-04-16T18:27:03.655Z,101991.22
2023-04-16T18:29:38.881Z,101992.97
2023-04-16T18:32:14.417Z,101998.94
2023-04-16T18:34:45.484Z,102005.91
2023-04-16T18:37:16.394Z,102007.75
2023-04-16T18:39:50.396Z,102010.47
2023-04-16T18:42:21.508Z,102010.41
2023-04-16T18:44:55.274Z,102014.84
2023-04-16T18:47:28.265Z,102011.31
2023-04-16T18:50:04.612Z,102021.03
2023-04-16T18:52:38.088Z,102012.16
2023-04-16T18:55:08.447Z,102012.16
2023-04-16T18:57:37.925Z,102014.00
2023-04-16T19:00:12.769Z,102013.88
2023-04-16T19:02:44.093Z,102018.22
2023-04-16T19:05:14.161Z,102024.28
2023-04-16T19:07:43.820Z,102019.06
2023-04-16T19:10:14.116Z,102024.41
2023-04-16T19:12:45.664Z,102020.81
2023-04-16T19:15:16.662Z,102028.66
2023-04-16T19:17:47.949Z,102026.16
2023-04-16T19:20:18.081Z,102024.38
2023-04-16T19:22:47.712Z,102030.44
2023-04-16T19:25:17.643Z,102023.22
2023-04-16T19:27:47.407Z,102025.00
2023-04-16T19:30:17.318Z,102023.31
2023-04-16T19:32:49.606Z,102023.19
2023-04-16T19:35:21.366Z,102031.03
2023-04-16T19:37:53.500Z,102037.19
2023-04-16T19:40:27.046Z,102031.78
2023-04-16T19:42:59.468Z,102034.38
2023-04-16T19:45:32.574Z,102036.16
2023-04-16T19:48:07.989Z,102044.03
2023-04-16T19:50:42.170Z,102041.50
2023-04-16T19:53:14.328Z,102038.84
2023-04-16T19:55:45.502Z,102045.81
2023-04-16T19:58:16.532Z,102037.91
2023-04-16T20:00:48.930Z,102043.91
2023-04-16T20:03:20.106Z,102038.47
2023-04-16T20:05:51.980Z,102039.25
2023-04-16T20:08:24.046Z,102037.38
2023-04-16T20:10:56.550Z,102040.84
2023-04-16T20:13:29.652Z,102039.66
2023-04-16T20:16:03.647Z,102035.38
2023-04-16T20:18:41.716Z,102037.13
2023-04-16T20:21:15.365Z,102035.13
2023-04-16T20:23:46.148Z,102030.72
2023-04-16T20:26:19.228Z,102046.53
2023-04-16T20:28:50.447Z,102039.44
2023-04-16T20:31:23.458Z,102045.44
2023-04-16T20:33:55.857Z,102042.56
2023-04-16T20:36:28.354Z,102049.56
2023-04-16T20:39:00.008Z,102049.66
2023-04-16T20:41:33.013Z,102049.66
2023-04-16T20:44:06.066Z,102045.16
2023-04-16T20:46:40.406Z,102050.47
2023-04-16T20:49:14.501Z,102051.38
2023-04-16T20:51:46.289Z,102049.56
2023-04-16T20:54:17.499Z,102052.09
2023-04-16T20:56:50.409Z,102049.53
2023-04-16T20:59:20.706Z,102057.34
2023-04-16T21:01:51.051Z,102052.72
2023-04-16T21:04:25.800Z,102057.84
2023-04-16T21:06:57.948Z,102056.06
2023-04-16T21:09:27.471Z,102049.84
2023-04-16T21:11:58.741Z,102054.13
2023-04-16T21:14:28.417Z,102051.53
2023-04-16T21:16:58.305Z,102045.47
2023-04-16T21:19:29.310Z,102049.78
2023-04-16T21:21:59.451Z,102054.22
2023-04-16T21:24:29.017Z,102042.69
2023-04-16T21:26:58.845Z,102040.03
2023-04-16T21:29:28.439Z,102039.03
2023-04-16T21:31:58.413Z,102038.13
2023-04-16T21:34:29.518Z,102042.63
2023-04-16T21:36:59.662Z,102047.13
2023-04-16T21:39:31.170Z,102038.47
2023-04-16T21:42:01.173Z,102043.81
2023-04-16T21:44:30.814Z,102035.16
2023-04-16T21:47:00.774Z,102037.97
2023-04-16T21:49:31.984Z,102049.56
2023-04-16T21:52:02.710Z,102042.63
2023-04-16T21:54:32.282Z,102047.06
2023-04-16T21:57:02.166Z,102045.41
2023-04-16T21:59:31.802Z,102048.28
2023-04-16T22:02:02.078Z,102043.16
2023-04-16T22:04:39.155Z,102052.97
2023-04-16T22:07:10.331Z,102046.75
2023-04-16T22:09:40.645Z,102044.06
2023-04-16T22:12:10.872Z,102052.16
2023-04-16T22:14:46.213Z,102052.13
2023-04-16T22:17:27.900Z,102054.78
2023-04-16T22:20:00.820Z,102060.16
2023-04-16T22:22:30.792Z,102051.28
2023-04-16T22:25:00.438Z,102050.50
2023-04-16T22:27:30.313Z,102057.59
2023-04-16T22:29:59.869Z,102053.22
2023-04-16T22:32:31.257Z,102059.44
2023-04-16T22:35:02.353Z,102058.59
2023-04-16T22:37:32.786Z,102060.38
2023-04-16T22:40:02.558Z,102065.78
2023-04-16T22:42:32.502Z,102063.06
2023-04-16T22:45:02.121Z,102063.94
2023-04-16T22:47:32.118Z,102075.41
2023-04-16T22:50:03.507Z,102068.41
2023-04-16T22:52:33.436Z,102065.72
2023-04-16T22:55:02.901Z,102063.84
2023-04-16T22:57:32.931Z,102067.50
2023-04-16T23:00:02.500Z,102072.81
2023-04-16T23:02:32.483Z,102071.78
2023-04-16T23:05:03.863Z,102070.09
2023-04-16T23:07:33.781Z,102070.91
2023-04-16T23:10:03.430Z,102068.28
2023-04-16T23:12:33.307Z,102071.84
2023-04-16T23:15:02.799Z,102073.78
2023-04-16T23:17:33.979Z,102071.19
2023-04-16T23:20:07.902Z,102072.13
2023-04-16T23:22:37.819Z,102072.94
2023-04-16T23:25:08.092Z,102071.97
2023-04-16T23:27:38.458Z,102067.63
2023-04-16T23:30:08.568Z,102073.78
2023-04-16T23:32:38.648Z,102071.16
2023-04-16T23:35:10.552Z,102078.28
2023-04-16T23:37:40.662Z,102076.56
2023-04-16T23:40:11.385Z,102073.06
2023-04-16T23:42:41.329Z,102073.06
2023-04-16T23:45:11.436Z,102071.28
2023-04-16T23:47:41.475Z,102069.50
2023-04-16T23:50:12.923Z,102072.28
2023-04-16T23:52:42.760Z,102081.09
2023-04-16T23:55:12.330Z,102081.91
2023-04-16T23:57:42.400Z,102078.38
